createdAt,value
2022-11-05T00:01:13.302Z,44.20
2022-11-05T00:04:14.880Z,44.10
2022-11-05T00:07:21.088Z,42.40
2022-11-05T00:10:14.748Z,41.50
2022-11-05T00:13:18.232Z,44.80
2022-11-05T00:16:19.772Z,44.60
2022-11-05T00:19:09.146Z,44.30
2022-11-05T00:22:10.484Z,44.30
2022-11-05T00:25:12.010Z,48.60
2022-11-05T00:28:01.476Z,50.00
2022-11-05T00:30:44.285Z,47.80
2022-11-05T00:33:27.537Z,44.80
2022-11-05T00:36:11.637Z,45.00
2022-11-05T00:38:54.668Z,50.70
2022-11-05T00:41:37.480Z,47.20
2022-11-05T00:44:58.903Z,47.30
2022-11-05T00:48:01.949Z,46.80
2022-11-05T00:53:29.213Z,49.20
2022-11-05T00:56:12.089Z,46.00
2022-11-05T00:58:56.562Z,50.90
2022-11-05T01:01:39.362Z,52.50
2022-11-05T01:04:22.448Z,49.60
2022-11-05T01:07:05.244Z,49.80
2022-11-05T01:09:48.135Z,55.40
2022-11-05T01:12:32.375Z,54.80
2022-11-05T01:15:16.186Z,57.00
2022-11-05T01:17:59.025Z,55.10
2022-11-05T01:20:42.042Z,49.10
2022-11-05T01:23:25.981Z,51.60
2022-11-05T01:26:09.183Z,50.90
2022-11-05T01:28:53.771Z,55.90
2022-11-05T01:31:36.781Z,51.90
2022-11-05T01:34:19.555Z,50.80
2022-11-05T01:37:02.399Z,49.30
2022-11-05T01:39:45.211Z,52.60
2022-11-05T01:42:30.882Z,45.00
2022-11-05T01:45:16.464Z,46.20
2022-11-05T01:48:05.086Z,45.20
2022-11-05T01:50:55.475Z,43.40
2022-11-05T01:53:57.342Z,47.60
2022-11-05T01:56:49.262Z,45.60
2022-11-05T01:59:39.640Z,44.90
2022-11-05T02:02:25.305Z,40.70
2022-11-05T02:05:10.696Z,42.70
2022-11-05T02:07:55.046Z,42.20
2022-11-05T02:10:38.060Z,45.70
2022-11-05T02:13:20.885Z,46.40
2022-11-05T02:16:32.673Z,47.20
2022-11-05T02:19:54.447Z,47.20
2022-11-05T02:22:44.832Z,47.90
2022-11-05T02:25:46.199Z,48.70
2022-11-05T02:28:52.005Z,45.20
2022-11-05T02:31:37.787Z,50.00
2022-11-05T02:34:46.180Z,48.60
2022-11-05T02:37:54.578Z,44.90
2022-11-05T02:40:57.856Z,46.40
2022-11-05T02:43:53.991Z,42.00
2022-11-05T02:46:55.126Z,40.40
2022-11-05T02:49:40.893Z,38.70
2022-11-05T02:52:42.424Z,34.80
2022-11-05T02:55:43.348Z,36.30
2022-11-05T02:58:30.671Z,37.60
2022-11-05T03:01:13.401Z,38.50
2022-11-05T03:04:00.817Z,33.20
2022-11-05T03:07:05.710Z,35.20
2022-11-05T03:10:14.410Z,32.40
2022-11-05T03:13:15.284Z,31.50
2022-11-05T03:16:12.475Z,31.60
2022-11-05T03:19:07.590Z,29.90
2022-11-05T03:22:32.643Z,31.50
2022-11-05T03:25:20.779Z,33.60
2022-11-05T03:28:07.478Z,29.80
2022-11-05T03:30:52.735Z,32.10
2022-11-05T03:33:39.462Z,35.10
2022-11-05T03:36:35.504Z,35.60
2022-11-05T03:39:30.615Z,33.50
2022-11-05T03:42:17.698Z,35.60
2022-11-05T03:45:06.731Z,32.60
2022-11-05T03:47:53.022Z,34.70
2022-11-05T03:50:49.955Z,33.80
2022-11-05T03:53:38.678Z,34.30
2022-11-05T03:56:30.522Z,35.40
2022-11-05T03:59:14.357Z,32.90
2022-11-05T04:01:58.345Z,32.80
2022-11-05T04:04:41.837Z,32.00
2022-11-05T04:07:43.190Z,32.40
2022-11-05T04:10:44.401Z,32.70
2022-11-05T04:13:27.910Z,33.60
2022-11-05T04:16:29.677Z,32.00
2022-11-05T04:19:12.484Z,27.20
2022-11-05T04:22:14.228Z,29.10
2022-11-05T04:24:56.958Z,26.20
2022-11-05T04:27:39.854Z,30.00
2022-11-05T04:30:23.098Z,28.90
2022-11-05T04:33:12.973Z,26.50
2022-11-05T04:35:56.171Z,26.70
2022-11-05T04:38:38.985Z,24.00
2022-11-05T04:41:22.819Z,25.20
2022-11-05T04:44:05.734Z,26.30
2022-11-05T04:46:48.489Z,25.20
2022-11-05T04:49:31.359Z,21.70
2022-11-05T04:52:14.172Z,20.10
2022-11-05T04:54:56.983Z,22.40
2022-11-05T04:57:40.513Z,19.00
2022-11-05T05:00:24.256Z,16.00
2022-11-05T05:03:07.061Z,12.10
2022-11-05T05:05:52.965Z,10.30
2022-11-05T05:08:36.879Z,15.20
2022-11-05T05:11:21.741Z,10.40
2022-11-05T05:14:04.552Z,9.30
2022-11-05T05:16:47.364Z,7.80
2022-11-05T05:19:30.280Z,9.90
2022-11-05T05:22:13.033Z,10.60
2022-11-05T05:25:00.206Z,10.00
2022-11-05T05:27:44.065Z,7.80
2022-11-05T05:30:26.853Z,11.20
2022-11-05T05:33:09.806Z,12.20
2022-11-05T05:35:52.772Z,8.90
2022-11-05T05:38:35.593Z,9.60
2022-11-05T05:41:19.630Z,9.50
2022-11-05T05:44:05.147Z,9.90
2022-11-05T05:46:48.024Z,10.10
2022-11-05T05:49:30.834Z,8.60
2022-11-05T05:52:13.563Z,7.90
2022-11-05T05:54:56.462Z,7.90
2022-11-05T05:57:39.377Z,10.00
2022-11-05T06:00:22.142Z,9.10
2022-11-05T06:03:06.478Z,9.50
2022-11-05T06:05:49.361Z,8.80
2022-11-05T06:08:33.082Z,9.50
2022-11-05T06:11:16.322Z,5.70
2022-11-05T06:13:59.223Z,4.80
2022-11-05T06:16:42.236Z,8.10
2022-11-05T06:19:25.053Z,5.70
2022-11-05T06:22:07.937Z,5.10
2022-11-05T06:24:50.674Z,7.40
2022-11-05T06:27:36.351Z,9.20
2022-11-05T06:30:19.678Z,8.10
2022-11-05T06:33:04.358Z,7.60
2022-11-05T06:35:47.242Z,5.80
2022-11-05T06:38:33.285Z,6.60
2022-11-05T06:41:16.179Z,9.40
2022-11-05T06:43:58.934Z,8.40
2022-11-05T06:46:48.157Z,13.10
2022-11-05T06:49:31.335Z,8.90
2022-11-05T06:52:16.092Z,12.70
2022-11-05T06:54:59.030Z,14.50
2022-11-05T06:57:42.022Z,11.30
2022-11-05T07:00:25.049Z,12.50
2022-11-05T07:03:10.725Z,12.00
2022-11-05T07:05:53.710Z,10.70
2022-11-05T07:08:38.032Z,9.80
2022-11-05T07:11:20.897Z,10.60
2022-11-05T07:14:03.812Z,11.80
2022-11-05T07:16:46.633Z,12.70
2022-11-05T07:19:29.448Z,5.90
2022-11-05T07:22:12.214Z,7.20
2022-11-05T07:24:55.085Z,11.40
2022-11-05T07:27:40.067Z,7.70
2022-11-05T07:30:22.863Z,10.90
2022-11-05T07:33:05.964Z,8.40
2022-11-05T07:35:48.780Z,9.40
2022-11-05T07:38:31.532Z,9.10
2022-11-05T07:41:14.392Z,12.30
2022-11-05T07:43:57.454Z,9.10
2022-11-05T07:46:43.571Z,10.30
2022-11-05T07:49:26.327Z,10.10
2022-11-05T07:52:09.085Z,7.00
2022-11-05T07:54:51.958Z,11.00
2022-11-05T07:57:44.992Z,5.30
2022-11-05T08:00:29.736Z,6.00
2022-11-05T08:03:15.550Z,6.30
2022-11-05T08:05:59.162Z,7.20
2022-11-05T08:08:42.284Z,11.90
2022-11-05T08:11:25.033Z,6.50
2022-11-05T08:14:08.035Z,10.50
2022-11-05T08:16:50.912Z,8.30
2022-11-05T08:19:33.709Z,12.50
2022-11-05T08:22:16.536Z,6.50
2022-11-05T08:25:02.732Z,13.70
2022-11-05T08:27:59.709Z,11.90
2022-11-05T08:30:42.882Z,11.70
2022-11-05T08:33:27.677Z,11.10
2022-11-05T08:36:10.662Z,13.50
2022-11-05T08:38:53.467Z,9.80
2022-11-05T08:41:36.450Z,17.40
2022-11-05T08:44:19.265Z,13.70
2022-11-05T08:47:02.216Z,15.40
2022-11-05T08:49:45.130Z,15.80
2022-11-05T08:52:28.050Z,15.30
2022-11-05T08:55:11.070Z,17.80
2022-11-05T08:58:02.902Z,16.90
2022-11-05T09:00:48.104Z,18.00
2022-11-05T09:03:31.008Z,19.80
2022-11-05T09:06:14.714Z,22.10
2022-11-05T09:08:57.734Z,23.20
2022-11-05T09:12:05.677Z,22.40
2022-11-05T09:14:43.703Z,18.30
2022-11-05T09:17:26.599Z,22.40
2022-11-05T09:20:11.372Z,19.40
2022-11-05T09:22:54.454Z,20.90
2022-11-05T09:25:37.632Z,17.40
2022-11-05T09:28:22.468Z,18.00
2022-11-05T09:31:08.558Z,14.30
2022-11-05T09:33:51.780Z,18.10
2022-11-05T09:36:34.641Z,20.20
2022-11-05T09:39:17.430Z,16.10
2022-11-05T09:42:05.440Z,17.40
2022-11-05T09:44:59.606Z,20.00
2022-11-05T09:47:52.344Z,20.90
2022-11-05T09:50:43.910Z,12.00
2022-11-05T09:53:27.181Z,19.10
2022-11-05T09:56:23.328Z,17.80
2022-11-05T09:59:19.104Z,19.90
2022-11-05T10:02:23.402Z,19.70
2022-11-05T10:05:10.375Z,19.80
2022-11-05T10:07:58.922Z,18.20
2022-11-05T10:10:49.139Z,16.80
2022-11-05T10:13:47.506Z,22.80
2022-11-05T10:16:39.753Z,16.60
2022-11-05T10:19:35.970Z,20.90
2022-11-05T10:22:19.404Z,19.80
2022-11-05T10:25:02.707Z,17.70
2022-11-05T10:27:54.757Z,17.60
2022-11-05T10:30:38.132Z,18.80
2022-11-05T10:33:45.421Z,24.80
2022-11-05T10:36:34.067Z,20.70
2022-11-05T10:39:19.613Z,22.10
2022-11-05T10:42:24.497Z,20.80
2022-11-05T10:45:40.646Z,20.10
2022-11-05T10:48:39.404Z,23.40
2022-11-05T10:51:26.941Z,27.50
2022-11-05T10:54:22.659Z,27.20
2022-11-05T10:57:31.440Z,23.60
2022-11-05T11:00:15.121Z,24.80
2022-11-05T11:03:01.909Z,31.20
2022-11-05T11:05:45.098Z,33.90
2022-11-05T11:08:28.737Z,25.00
2022-11-05T11:11:24.648Z,27.40
2022-11-05T11:14:13.501Z,22.00
2022-11-05T11:17:17.178Z,24.60
2022-11-05T11:20:32.746Z,26.70
2022-11-05T11:23:16.700Z,26.70
2022-11-05T11:26:03.705Z,30.00
2022-11-05T11:28:56.337Z,32.50
2022-11-05T11:31:40.152Z,21.00
2022-11-05T11:34:29.813Z,21.00
2022-11-05T11:37:35.602Z,16.30
2022-11-05T11:40:31.887Z,24.20
2022-11-05T11:43:28.321Z,23.50
2022-11-05T11:46:21.185Z,26.40
2022-11-05T11:49:06.092Z,27.40
2022-11-05T11:51:50.272Z,21.30
2022-11-05T11:54:34.847Z,19.40
2022-11-05T11:57:25.190Z,24.10
2022-11-05T12:00:10.063Z,20.40
2022-11-05T12:03:10.872Z,21.40
2022-11-05T12:06:26.428Z,23.80
2022-11-05T12:09:44.953Z,15.70
2022-11-05T12:12:40.468Z,17.40
2022-11-05T12:15:51.720Z,20.30
2022-11-05T12:19:09.944Z,21.70
2022-11-05T12:22:18.235Z,15.50
2022-11-05T12:25:21.625Z,19.80
2022-11-05T12:28:17.833Z,20.30
2022-11-05T12:31:22.585Z,16.90
2022-11-05T12:34:24.010Z,15.90
2022-11-05T12:37:25.146Z,20.50
2022-11-05T12:40:16.093Z,13.90
2022-11-05T12:43:12.032Z,16.50
2022-11-05T12:46:12.975Z,13.60
2022-11-05T12:49:04.602Z,15.90
2022-11-05T12:51:59.820Z,15.30
2022-11-05T12:55:17.648Z,19.10
2022-11-05T12:58:28.494Z,20.90
2022-11-05T13:01:16.052Z,15.60
2022-11-05T13:04:06.690Z,18.30
2022-11-05T13:06:55.203Z,10.80
2022-11-05T13:10:10.980Z,12.90
2022-11-05T13:13:29.263Z,19.10
2022-11-05T13:16:30.903Z,15.20
2022-11-05T13:19:32.062Z,11.80
2022-11-05T13:22:35.923Z,14.20
2022-11-05T13:25:21.639Z,13.50
2022-11-05T13:28:38.568Z,14.20
2022-11-05T13:31:30.435Z,20.80
2022-11-05T13:34:13.651Z,11.40
2022-11-05T13:37:20.635Z,19.50
2022-11-05T13:40:08.989Z,16.30
2022-11-05T13:43:00.054Z,18.50
2022-11-05T13:46:06.140Z,14.60
2022-11-05T13:48:52.057Z,14.70
2022-11-05T13:51:49.889Z,9.60
2022-11-05T13:54:59.245Z,17.80
2022-11-05T13:58:04.132Z,13.40
2022-11-05T14:01:11.667Z,15.30
2022-11-05T14:03:56.444Z,21.20
2022-11-05T14:06:39.326Z,11.40
2022-11-05T14:09:26.241Z,16.80
2022-11-05T14:12:21.597Z,9.50
2022-11-05T14:15:13.516Z,13.30
2022-11-05T14:17:56.592Z,16.10
2022-11-05T14:20:45.010Z,12.40
2022-11-05T14:23:30.891Z,14.80
2022-11-05T14:26:15.489Z,17.60
2022-11-05T14:29:04.315Z,14.70
2022-11-05T14:32:07.769Z,16.80
2022-11-05T14:35:01.219Z,11.50
2022-11-05T14:37:53.236Z,21.60
2022-11-05T14:40:38.874Z,14.70
2022-11-05T14:43:24.446Z,15.20
2022-11-05T14:46:07.853Z,11.30
2022-11-05T14:48:58.514Z,14.70
2022-11-05T14:51:46.765Z,14.40
2022-11-05T14:54:39.867Z,10.70
2022-11-05T14:57:42.045Z,17.10
2022-11-05T15:00:40.923Z,15.30
2022-11-05T15:03:46.233Z,14.90
2022-11-05T15:06:33.568Z,15.00
2022-11-05T15:09:25.675Z,15.10
2022-11-05T15:12:22.523Z,17.80
2022-11-05T15:15:24.188Z,18.50
2022-11-05T15:18:13.228Z,16.90
2022-11-05T15:21:00.746Z,14.30
2022-11-05T15:23:46.110Z,16.80
2022-11-05T15:26:50.315Z,8.30
2022-11-05T15:29:33.616Z,18.10
2022-11-05T15:32:18.669Z,14.40
2022-11-05T15:35:01.611Z,12.30
2022-11-05T15:37:54.726Z,14.60
2022-11-05T15:40:38.907Z,10.50
2022-11-05T15:43:21.719Z,14.20
2022-11-05T15:46:30.015Z,14.50
2022-11-05T15:49:13.050Z,15.80
2022-11-05T15:51:55.884Z,14.50
2022-11-05T15:54:39.025Z,17.90
2022-11-05T15:57:27.817Z,19.70
2022-11-05T16:00:20.917Z,15.70
2022-11-05T16:03:16.207Z,17.40
2022-11-05T16:06:00.602Z,14.60
2022-11-05T16:08:48.061Z,11.90
2022-11-05T16:11:31.435Z,12.70
2022-11-05T16:14:18.221Z,14.50
2022-11-05T16:17:20.062Z,16.70
2022-11-05T16:20:03.884Z,16.10
2022-11-05T16:22:49.086Z,17.60
2022-11-05T16:25:40.816Z,21.20
2022-11-05T16:28:29.432Z,19.40
2022-11-05T16:31:12.481Z,16.70
2022-11-05T16:33:56.928Z,17.50
2022-11-05T16:36:40.018Z,16.90
2022-11-05T16:39:22.979Z,22.40
2022-11-05T16:42:39.444Z,17.30
2022-11-05T16:45:24.924Z,16.90
2022-11-05T16:48:11.744Z,17.10
2022-11-05T16:50:55.068Z,18.70
2022-11-05T16:53:37.959Z,23.90
2022-11-05T16:56:22.786Z,21.30
2022-11-05T16:59:05.686Z,21.00
2022-11-05T17:01:53.081Z,20.90
2022-11-05T17:04:39.469Z,19.90
2022-11-05T17:07:23.320Z,20.10
2022-11-05T17:10:07.426Z,19.80
2022-11-05T17:12:53.077Z,18.70
2022-11-05T17:15:36.218Z,18.70
2022-11-05T17:18:19.728Z,20.00
2022-11-05T17:21:02.951Z,18.40
2022-11-05T17:23:45.953Z,17.70
2022-11-05T17:26:29.005Z,20.10
2022-11-05T17:29:12.022Z,17.10
2022-11-05T17:31:55.246Z,18.00
2022-11-05T17:34:40.413Z,14.50
2022-11-05T17:37:23.501Z,18.50
2022-11-05T17:40:08.477Z,20.40
2022-11-05T17:42:52.797Z,26.90
2022-11-05T17:45:48.265Z,23.40
2022-11-05T17:48:31.194Z,20.90
2022-11-05T17:51:18.777Z,19.40
2022-11-05T17:54:02.068Z,18.20
2022-11-05T17:56:45.037Z,27.10
2022-11-05T17:59:27.984Z,19.80
2022-11-05T18:02:11.959Z,19.30
2022-11-05T18:04:55.089Z,20.80
2022-11-05T18:07:37.981Z,23.20
2022-11-05T18:10:21.669Z,20.20
2022-11-05T18:13:04.864Z,21.10
2022-11-05T18:15:51.797Z,19.20
2022-11-05T18:18:35.191Z,16.70
2022-11-05T18:21:18.266Z,18.80
2022-11-05T18:24:07.862Z,22.50
2022-11-05T18:26:50.785Z,22.30
2022-11-05T18:29:34.059Z,15.10
2022-11-05T18:32:17.343Z,17.40
2022-11-05T18:35:00.338Z,18.30
2022-11-05T18:37:44.299Z,16.80
2022-11-05T18:40:27.766Z,23.70
2022-11-05T18:43:12.785Z,22.60
2022-11-05T18:45:56.681Z,26.20
2022-11-05T18:48:39.818Z,27.30
2022-11-05T18:51:22.720Z,25.40
2022-11-05T18:54:06.105Z,29.90
2022-11-05T18:56:48.990Z,26.50
2022-11-05T18:59:39.895Z,31.40
2022-11-05T19:02:23.311Z,26.50
2022-11-05T19:05:28.001Z,25.00
2022-11-05T19:10:55.545Z,25.50
2022-11-05T19:13:39.950Z,22.90
2022-11-05T19:16:25.405Z,26.00
2022-11-05T19:19:09.614Z,24.90
2022-11-05T19:21:53.744Z,24.20
2022-11-05T19:24:37.133Z,27.70
2022-11-05T19:27:20.439Z,25.80
2022-11-05T19:30:05.344Z,27.00
2022-11-05T19:32:48.696Z,28.70
2022-11-05T19:35:34.620Z,25.30
2022-11-05T19:38:20.508Z,30.20
2022-11-05T19:41:08.948Z,27.20
2022-11-05T19:43:54.379Z,28.00
2022-11-05T19:46:38.647Z,26.70
2022-11-05T19:49:21.888Z,25.00
2022-11-05T19:52:05.665Z,24.80
2022-11-05T19:54:49.664Z,24.00
2022-11-05T19:57:36.158Z,22.20
2022-11-05T20:00:20.097Z,20.60
2022-11-05T20:03:03.522Z,20.90
2022-11-05T20:05:47.152Z,23.60
2022-11-05T20:08:31.193Z,22.70
2022-11-05T20:11:15.708Z,20.50
2022-11-05T20:13:59.333Z,20.90
2022-11-05T20:16:43.441Z,30.60
2022-11-05T20:19:27.344Z,25.70
2022-11-05T20:22:11.662Z,31.60
2022-11-05T20:24:55.745Z,31.40
2022-11-05T20:27:40.498Z,27.60
2022-11-05T20:30:25.669Z,23.20
2022-11-05T20:33:09.910Z,24.70
2022-11-05T20:35:55.687Z,21.60
2022-11-05T20:38:39.429Z,21.60
2022-11-05T20:41:24.731Z,24.30
2022-11-05T20:44:08.958Z,23.20
2022-11-05T20:46:52.877Z,25.50
2022-11-05T20:49:36.815Z,24.90
2022-11-05T20:52:21.129Z,27.70
2022-11-05T20:55:05.409Z,25.10
2022-11-05T20:57:48.526Z,24.80
2022-11-05T21:00:32.076Z,22.80
2022-11-05T21:03:15.792Z,18.90
2022-11-05T21:06:04.184Z,21.00
2022-11-05T21:08:48.755Z,21.30
2022-11-05T21:11:51.700Z,21.80
2022-11-05T21:14:34.506Z,18.30
2022-11-05T21:20:01.122Z,23.70
2022-11-05T21:22:45.576Z,20.30
2022-11-05T21:25:28.885Z,29.40
2022-11-05T21:28:14.416Z,24.50
2022-11-05T21:31:02.082Z,31.80
2022-11-05T21:33:45.216Z,27.60
2022-11-05T21:36:30.368Z,29.20
2022-11-05T21:39:14.150Z,33.00
2022-11-05T21:41:59.952Z,26.30
2022-11-05T21:44:43.674Z,36.20
2022-11-05T21:47:29.395Z,32.20
2022-11-05T21:50:14.533Z,35.90
2022-11-05T21:53:18.120Z,33.10
2022-11-05T21:56:25.609Z,40.70
2022-11-05T21:59:31.562Z,31.80
2022-11-05T22:02:18.085Z,36.80
2022-11-05T22:05:02.742Z,27.40
2022-11-05T22:07:45.633Z,33.90
2022-11-05T22:10:28.635Z,30.70
2022-11-05T22:15:55.852Z,38.40
2022-11-05T22:18:38.691Z,32.50
2022-11-05T22:24:04.988Z,40.60
2022-11-05T22:26:48.292Z,37.30
2022-11-05T22:29:31.913Z,37.60
2022-11-05T22:32:15.242Z,48.70
2022-11-05T22:34:59.075Z,35.70
2022-11-05T22:37:41.990Z,40.00
2022-11-05T22:40:24.902Z,36.80
2022-11-05T22:43:07.674Z,38.80
2022-11-05T22:48:35.592Z,34.10
2022-11-05T22:51:22.551Z,33.30
2022-11-05T22:54:06.541Z,38.70
2022-11-05T22:56:50.402Z,36.20
2022-11-05T22:59:33.233Z,34.20
2022-11-05T23:05:00.028Z,34.20
2022-11-05T23:11:03.124Z,39.10
2022-11-05T23:13:46.032Z,43.50
2022-11-05T23:16:48.053Z,42.00
2022-11-05T23:19:49.930Z,33.30
2022-11-05T23:22:51.700Z,39.40
2022-11-05T23:25:35.577Z,39.20
2022-11-05T23:28:21.306Z,38.00
2022-11-05T23:31:39.245Z,38.20
2022-11-05T23:34:21.968Z,40.20
2022-11-05T23:37:23.963Z,37.20
2022-11-05T23:40:09.526Z,36.70
2022-11-05T23:43:12.825Z,37.40
2022-11-05T23:49:00.139Z,39.30
2022-11-05T23:54:25.666Z,34.80
2022-11-05T23:59:51.247Z,38.80
